createdAt,value
2023-07-18T00:00:30.898Z,78.50
2023-07-18T00:03:30.175Z,78.20
2023-07-18T00:06:28.094Z,77.90
2023-07-18T00:09:26.358Z,77.70
2023-07-18T00:12:24.843Z,77.50
2023-07-18T00:15:23.734Z,77.10
2023-07-18T00:18:23.204Z,77.00
2023-07-18T00:21:21.614Z,77.70
2023-07-18T00:24:19.672Z,77.70
2023-07-18T00:27:18.141Z,77.40
2023-07-18T00:30:16.371Z,77.10
2023-07-18T00:33:14.108Z,77.30
2023-07-18T00:36:12.037Z,78.00
2023-07-18T00:39:09.829Z,77.10
2023-07-18T00:42:08.143Z,76.70
2023-07-18T00:45:07.654Z,76.40
2023-07-18T00:48:05.998Z,75.80
2023-07-18T00:51:06.066Z,75.90
2023-07-18T00:54:04.730Z,76.00
2023-07-18T00:57:03.446Z,75.80
2023-07-18T01:00:01.888Z,75.60
2023-07-18T01:03:00.005Z,75.30
2023-07-18T01:05:58.096Z,76.20
2023-07-18T01:08:56.417Z,76.30
2023-07-18T01:11:54.381Z,76.70
2023-07-18T01:14:52.156Z,76.90
2023-07-18T01:17:51.123Z,76.90
2023-07-18T01:20:50.295Z,77.00
2023-07-18T01:23:48.412Z,76.60
2023-07-18T01:26:46.200Z,77.00
2023-07-18T01:29:44.130Z,78.30
2023-07-18T01:32:43.625Z,80.60
2023-07-18T01:35:41.693Z,80.20
2023-07-18T01:38:39.556Z,79.40
2023-07-18T01:41:37.500Z,78.50
2023-07-18T01:44:35.434Z,77.00
2023-07-18T01:47:33.665Z,76.40
2023-07-18T01:50:31.782Z,76.20
2023-07-18T01:53:29.685Z,75.70
2023-07-18T01:56:27.440Z,76.60
2023-07-18T01:59:25.326Z,75.70
2023-07-18T02:02:23.492Z,74.60
2023-07-18T02:05:24.806Z,74.30
2023-07-18T02:08:22.613Z,72.50
2023-07-18T02:11:20.830Z,70.80
2023-07-18T02:14:21.526Z,66.20
2023-07-18T02:17:19.538Z,64.00
2023-07-18T02:20:17.368Z,63.40
2023-07-18T02:23:15.431Z,64.10
2023-07-18T02:26:15.692Z,62.90
2023-07-18T02:29:14.851Z,63.60
2023-07-18T02:32:12.668Z,62.00
2023-07-18T02:35:12.359Z,62.10
2023-07-18T02:38:10.183Z,62.80
2023-07-18T02:41:08.079Z,62.90
2023-07-18T02:44:07.332Z,63.00
2023-07-18T02:47:06.369Z,63.00
2023-07-18T02:50:04.234Z,62.40
2023-07-18T02:53:02.154Z,63.30
2023-07-18T02:56:00.006Z,64.40
2023-07-18T02:58:57.895Z,64.80
2023-07-18T03:01:56.689Z,64.50
2023-07-18T03:04:54.660Z,64.40
2023-07-18T03:07:56.133Z,64.50
2023-07-18T03:10:54.185Z,62.40
2023-07-18T03:13:51.945Z,63.20
2023-07-18T03:16:50.777Z,63.50
2023-07-18T03:19:48.774Z,62.50
2023-07-18T03:22:48.337Z,62.70
2023-07-18T03:25:46.177Z,61.40
2023-07-18T03:28:44.079Z,61.40
2023-07-18T03:31:42.216Z,61.90
2023-07-18T03:34:40.225Z,60.20
2023-07-18T03:37:38.235Z,60.60
2023-07-18T03:40:36.170Z,60.40
2023-07-18T03:43:34.054Z,61.30
2023-07-18T03:46:31.992Z,61.40
2023-07-18T03:49:31.034Z,61.90
2023-07-18T03:52:28.940Z,61.50
2023-07-18T03:55:26.708Z,60.20
2023-07-18T03:58:24.541Z,60.80
2023-07-18T04:01:22.596Z,60.90
2023-07-18T04:04:20.930Z,60.80
2023-07-18T04:07:19.447Z,62.20
2023-07-18T04:10:17.528Z,61.30
2023-07-18T04:13:15.694Z,61.20
2023-07-18T04:16:14.345Z,61.60
2023-07-18T04:19:12.237Z,61.70
2023-07-18T04:22:10.149Z,60.80
2023-07-18T04:25:08.208Z,61.00
2023-07-18T04:28:06.219Z,60.90
2023-07-18T04:31:04.775Z,62.20
2023-07-18T04:34:02.709Z,62.20
2023-07-18T04:37:00.961Z,60.90
2023-07-18T04:39:58.886Z,61.50
2023-07-18T04:42:56.638Z,61.10
2023-07-18T04:45:55.007Z,61.70
2023-07-18T04:48:53.302Z,62.60
2023-07-18T04:51:53.018Z,62.90
2023-07-18T04:54:50.894Z,61.00
2023-07-18T04:57:48.755Z,61.00
2023-07-18T05:00:46.565Z,60.80
2023-07-18T05:03:56.696Z,61.00
2023-07-18T05:06:55.594Z,60.40
2023-07-18T05:09:53.445Z,60.50
2023-07-18T05:12:55.797Z,59.50
2023-07-18T05:15:53.739Z,59.90
2023-07-18T05:18:51.611Z,58.10
2023-07-18T05:21:49.555Z,58.10
2023-07-18T05:24:47.342Z,58.20
2023-07-18T05:27:45.961Z,58.10
2023-07-18T05:30:43.908Z,58.80
2023-07-18T05:33:41.828Z,58.90
2023-07-18T05:36:39.620Z,57.70
2023-07-18T05:39:37.557Z,58.80
2023-07-18T05:42:35.269Z,57.90
2023-07-18T05:45:33.220Z,58.90
2023-07-18T05:48:32.264Z,59.00
2023-07-18T05:51:30.143Z,57.30
2023-07-18T05:54:28.064Z,57.40
2023-07-18T05:57:26.044Z,58.40
2023-07-18T06:00:24.036Z,56.70
2023-07-18T06:03:22.718Z,56.60
2023-07-18T06:06:20.989Z,57.20
2023-07-18T06:09:18.961Z,57.30
2023-07-18T06:12:17.689Z,56.40
2023-07-18T06:15:15.635Z,56.10
2023-07-18T06:18:13.364Z,55.50
2023-07-18T06:21:11.344Z,56.10
2023-07-18T06:24:18.670Z,57.00
2023-07-18T06:27:17.790Z,56.20
2023-07-18T06:30:15.727Z,55.20
2023-07-18T06:33:15.385Z,54.20
2023-07-18T06:36:14.103Z,53.90
2023-07-18T06:39:13.507Z,53.90
2023-07-18T06:42:11.398Z,53.80
2023-07-18T06:45:10.317Z,53.70
2023-07-18T06:48:08.502Z,53.20
2023-07-18T06:51:08.373Z,53.70
2023-07-18T06:54:06.243Z,52.80
2023-07-18T06:57:04.180Z,52.70
2023-07-18T07:00:02.077Z,52.30
2023-07-18T07:03:00.058Z,53.10
2023-07-18T07:05:57.890Z,54.50
2023-07-18T07:08:55.798Z,53.90
2023-07-18T07:11:53.548Z,54.30
2023-07-18T07:14:51.773Z,54.40
2023-07-18T07:17:49.590Z,53.70
2023-07-18T07:20:47.546Z,53.60
2023-07-18T07:23:45.334Z,54.30
2023-07-18T07:26:43.887Z,54.80
2023-07-18T07:29:42.042Z,53.90
2023-07-18T07:32:40.197Z,55.00
2023-07-18T07:35:38.000Z,53.70
2023-07-18T07:38:35.857Z,54.40
2023-07-18T07:41:33.728Z,55.70
2023-07-18T07:44:31.822Z,54.90
2023-07-18T07:47:29.686Z,54.80
2023-07-18T07:50:27.698Z,54.80
2023-07-18T07:53:25.527Z,55.00
2023-07-18T07:56:23.493Z,54.90
2023-07-18T07:59:21.279Z,55.20
2023-07-18T08:02:21.067Z,54.80
2023-07-18T08:05:19.016Z,55.40
2023-07-18T08:08:17.025Z,54.60
2023-07-18T08:11:14.769Z,53.80
2023-07-18T08:14:12.638Z,54.90
2023-07-18T08:17:10.452Z,52.90
2023-07-18T08:20:10.591Z,53.00
2023-07-18T08:23:08.837Z,53.30
2023-07-18T08:26:06.722Z,52.90
2023-07-18T08:29:04.471Z,53.70
2023-07-18T08:32:02.775Z,52.30
2023-07-18T08:35:00.668Z,52.60
2023-07-18T08:37:58.584Z,52.30
2023-07-18T08:40:59.810Z,51.50
2023-07-18T08:43:59.466Z,51.00
2023-07-18T08:46:58.221Z,51.20
2023-07-18T08:49:56.346Z,51.90
2023-07-18T08:52:54.193Z,52.00
2023-07-18T08:55:52.698Z,50.40
2023-07-18T08:58:50.632Z,50.40
2023-07-18T09:01:49.999Z,50.00
2023-07-18T09:04:48.728Z,50.10
2023-07-18T09:07:46.612Z,50.10
2023-07-18T09:10:44.514Z,49.70
2023-07-18T09:13:43.335Z,50.40
2023-07-18T09:16:45.013Z,50.00
2023-07-18T09:19:43.916Z,49.50
2023-07-18T09:22:43.916Z,49.70
2023-07-18T09:25:41.877Z,50.00
2023-07-18T09:28:40.587Z,49.40
2023-07-18T09:31:39.985Z,48.90
2023-07-18T09:34:37.839Z,49.10
2023-07-18T09:37:47.791Z,48.80
2023-07-18T09:40:46.607Z,48.90
2023-07-18T09:43:45.475Z,49.40
2023-07-18T09:46:44.051Z,48.70
2023-07-18T09:49:44.812Z,49.40
2023-07-18T09:52:47.803Z,48.90
2023-07-18T09:55:46.118Z,48.30
2023-07-18T09:58:46.683Z,49.70
2023-07-18T10:01:45.256Z,48.90
2023-07-18T10:04:43.797Z,48.10
2023-07-18T10:07:42.996Z,49.50
2023-07-18T10:10:40.809Z,49.40
2023-07-18T10:14:12.661Z,49.20
2023-07-18T10:17:10.534Z,49.00
2023-07-18T10:20:20.646Z,48.50
2023-07-18T10:23:19.334Z,48.40
2023-07-18T10:26:17.613Z,49.30
2023-07-18T10:29:15.471Z,48.10
2023-07-18T10:32:13.769Z,47.80
2023-07-18T10:35:14.718Z,48.20
2023-07-18T10:38:15.855Z,48.40
2023-07-18T10:41:13.689Z,47.50
2023-07-18T10:44:15.937Z,48.30
2023-07-18T10:47:16.741Z,47.20
2023-07-18T10:53:17.054Z,47.10
2023-07-18T10:56:24.464Z,47.10
2023-07-18T10:59:23.779Z,48.20
2023-07-18T11:02:22.610Z,46.80
2023-07-18T11:05:20.569Z,47.40
2023-07-18T11:08:34.408Z,47.50
2023-07-18T11:11:32.181Z,48.10
2023-07-18T11:14:45.636Z,46.90
2023-07-18T11:17:45.310Z,47.90
2023-07-18T11:20:43.868Z,46.90
2023-07-18T11:23:43.310Z,47.00
2023-07-18T11:26:41.335Z,46.30
2023-07-18T11:29:39.331Z,46.10
2023-07-18T11:32:43.502Z,46.50
2023-07-18T11:35:47.541Z,46.90
2023-07-18T11:38:48.818Z,46.80
2023-07-18T11:41:46.900Z,46.70
2023-07-18T11:44:45.740Z,46.70
2023-07-18T11:47:46.251Z,47.00
2023-07-18T11:50:46.801Z,46.30
2023-07-18T11:53:44.713Z,46.80
2023-07-18T11:56:42.631Z,46.20
2023-07-18T11:59:40.433Z,46.30
2023-07-18T12:02:39.002Z,46.00
2023-07-18T12:05:36.819Z,46.10
2023-07-18T12:08:34.695Z,46.50
2023-07-18T12:11:32.704Z,47.50
2023-07-18T12:14:31.265Z,47.00
2023-07-18T12:17:29.142Z,46.10
2023-07-18T12:20:27.666Z,46.50
2023-07-18T12:23:25.604Z,46.70
2023-07-18T12:26:25.846Z,46.70
2023-07-18T12:29:23.985Z,46.60
2023-07-18T12:32:25.376Z,46.30
2023-07-18T12:35:25.239Z,47.30
2023-07-18T12:38:25.762Z,46.40
2023-07-18T12:41:24.411Z,47.00
2023-07-18T12:44:26.885Z,46.90
2023-07-18T12:47:25.990Z,47.60
2023-07-18T12:50:25.941Z,47.50
2023-07-18T12:53:25.289Z,47.40
2023-07-18T12:56:23.522Z,47.50
2023-07-18T12:59:21.392Z,47.50
2023-07-18T13:02:19.364Z,48.60
2023-07-18T13:05:18.484Z,48.00
2023-07-18T13:28:10.275Z,47.90
2023-07-18T13:31:08.634Z,47.80
2023-07-18T13:34:06.760Z,48.00
2023-07-18T13:37:04.626Z,48.10
2023-07-18T13:40:02.636Z,48.50
2023-07-18T13:43:00.422Z,48.80
2023-07-18T13:45:58.382Z,49.90
2023-07-18T13:48:56.266Z,51.70
2023-07-18T13:51:54.232Z,52.30
2023-07-18T13:54:52.022Z,52.70
2023-07-18T13:57:50.418Z,53.10
2023-07-18T14:00:48.941Z,53.60
2023-07-18T14:03:47.044Z,53.20
2023-07-18T14:06:45.057Z,52.40
2023-07-18T14:09:43.134Z,53.50
2023-07-18T14:12:41.382Z,52.40
2023-07-18T14:15:39.317Z,52.60
2023-07-18T14:18:37.315Z,54.00
2023-07-18T14:21:35.351Z,53.70
2023-07-18T14:24:33.250Z,54.00
2023-07-18T14:27:31.201Z,55.10
2023-07-18T14:30:29.062Z,58.10
2023-07-18T14:33:27.015Z,58.40
2023-07-18T14:36:24.845Z,58.40
2023-07-18T14:39:22.899Z,60.90
2023-07-18T14:42:21.087Z,63.60
2023-07-18T14:45:19.410Z,61.60
2023-07-18T14:48:17.173Z,62.10
2023-07-18T14:51:15.572Z,61.60
2023-07-18T14:54:13.532Z,61.50
2023-07-18T14:57:11.448Z,60.70
2023-07-18T15:00:09.846Z,60.80
2023-07-18T15:03:07.914Z,59.30
2023-07-18T15:06:06.329Z,59.30
2023-07-18T15:09:04.346Z,59.20
2023-07-18T15:12:02.312Z,56.90
2023-07-18T15:15:00.273Z,57.70
2023-07-18T15:17:58.363Z,56.90
2023-07-18T15:20:56.395Z,57.40
2023-07-18T15:23:54.232Z,57.50
2023-07-18T15:26:52.210Z,58.50
2023-07-18T15:29:50.414Z,58.60
2023-07-18T15:32:48.340Z,56.80
2023-07-18T15:35:46.352Z,57.50
2023-07-18T15:38:46.314Z,56.20
2023-07-18T15:41:44.425Z,57.40
2023-07-18T15:44:42.507Z,58.10
2023-07-18T15:47:40.365Z,58.30
2023-07-18T15:50:38.398Z,59.10
2023-07-18T15:53:36.713Z,58.70
2023-07-18T15:56:34.632Z,58.60
2023-07-18T15:59:33.750Z,58.50
2023-07-18T16:02:32.359Z,58.20
2023-07-18T16:05:31.320Z,58.40
2023-07-18T16:08:29.296Z,57.50
2023-07-18T16:11:27.372Z,56.90
2023-07-18T16:14:25.765Z,56.50
2023-07-18T16:17:24.218Z,56.10
2023-07-18T16:20:22.171Z,56.30
2023-07-18T16:23:20.017Z,56.10
2023-07-18T16:26:20.640Z,55.90
2023-07-18T16:29:19.352Z,56.10
2023-07-18T16:32:17.719Z,56.30
2023-07-18T16:35:15.766Z,56.40
2023-07-18T16:38:13.811Z,56.70
2023-07-18T16:41:11.783Z,56.60
2023-07-18T16:44:11.662Z,56.30
2023-07-18T16:47:09.518Z,56.00
2023-07-18T16:50:08.177Z,55.90
2023-07-18T16:53:05.925Z,55.60
2023-07-18T16:56:03.897Z,55.70
2023-07-18T16:59:01.750Z,55.80
2023-07-18T17:01:59.712Z,55.70
2023-07-18T17:04:57.831Z,55.60
2023-07-18T17:07:55.846Z,55.00
2023-07-18T17:10:53.628Z,55.10
2023-07-18T17:13:52.718Z,54.70
2023-07-18T17:16:51.568Z,54.60
2023-07-18T17:20:04.692Z,54.90
2023-07-18T17:23:05.622Z,55.40
2023-07-18T17:26:03.589Z,55.40
2023-07-18T17:29:01.706Z,55.90
2023-07-18T17:31:59.766Z,55.40
2023-07-18T17:34:57.603Z,55.20
2023-07-18T17:37:55.533Z,55.10
2023-07-18T17:40:54.287Z,55.80
2023-07-18T17:43:52.475Z,56.00
2023-07-18T17:46:51.294Z,56.60
2023-07-18T17:49:49.274Z,57.00
2023-07-18T17:52:47.273Z,57.60
2023-07-18T17:55:45.197Z,58.50
2023-07-18T17:58:44.157Z,59.10
2023-07-18T18:01:42.231Z,59.20
2023-07-18T18:04:40.320Z,60.20
2023-07-18T18:07:38.288Z,60.90
2023-07-18T18:10:36.052Z,60.30
2023-07-18T18:13:34.039Z,60.30
2023-07-18T18:16:32.085Z,60.60
2023-07-18T18:19:30.090Z,61.10
2023-07-18T18:22:27.919Z,61.50
2023-07-18T18:25:25.955Z,60.40
2023-07-18T18:28:25.318Z,60.60
2023-07-18T18:31:23.643Z,60.10
2023-07-18T18:34:21.640Z,59.70
2023-07-18T18:37:19.604Z,59.50
2023-07-18T18:40:18.803Z,58.90
2023-07-18T18:43:16.668Z,58.80
2023-07-18T18:46:14.689Z,58.40
2023-07-18T18:49:26.007Z,58.40
2023-07-18T18:52:24.875Z,58.10
2023-07-18T18:55:25.374Z,58.10
2023-07-18T18:58:25.496Z,57.80
2023-07-18T19:01:23.659Z,57.70
2023-07-18T19:04:21.551Z,57.80
2023-07-18T19:07:21.871Z,57.60
2023-07-18T19:10:19.697Z,57.70
2023-07-18T19:13:18.304Z,57.60
2023-07-18T19:16:28.603Z,57.00
2023-07-18T19:19:43.517Z,57.00
2023-07-18T19:22:41.460Z,57.00
2023-07-18T19:25:39.473Z,57.10
2023-07-18T19:28:39.058Z,57.20
2023-07-18T19:31:37.220Z,57.30
2023-07-18T19:34:35.145Z,57.60
2023-07-18T19:37:33.647Z,57.60
2023-07-18T19:40:32.688Z,57.90
2023-07-18T19:43:32.984Z,57.80
2023-07-18T19:46:31.060Z,57.70
2023-07-18T19:49:30.489Z,57.10
2023-07-18T19:52:28.334Z,57.10
2023-07-18T19:55:26.251Z,57.00
2023-07-18T19:58:24.163Z,56.60
2023-07-18T20:01:22.587Z,56.80
2023-07-18T20:04:20.705Z,56.60
2023-07-18T20:07:18.825Z,56.50
2023-07-18T20:10:16.649Z,56.10
2023-07-18T20:13:14.546Z,55.70
2023-07-18T20:16:12.482Z,55.70
2023-07-18T20:19:10.369Z,55.80
2023-07-18T20:22:08.145Z,55.50
2023-07-18T20:25:06.659Z,55.50
2023-07-18T20:28:05.060Z,56.30
2023-07-18T20:31:03.138Z,57.10
2023-07-18T20:34:01.410Z,56.20
2023-07-18T20:36:59.296Z,56.10
2023-07-18T20:39:57.321Z,55.90
2023-07-18T20:42:55.204Z,55.20
2023-07-18T20:45:57.734Z,54.90
2023-07-18T20:48:55.741Z,54.90
2023-07-18T20:51:53.512Z,54.40
2023-07-18T20:54:51.970Z,55.00
2023-07-18T20:57:49.870Z,55.50
2023-07-18T21:00:48.966Z,55.60
2023-07-18T21:03:46.828Z,55.70
2023-07-18T21:06:44.815Z,56.10
2023-07-18T21:09:42.691Z,56.40
2023-07-18T21:12:40.612Z,56.70
2023-07-18T21:15:38.529Z,56.80
2023-07-18T21:18:36.446Z,56.80
2023-07-18T21:21:34.494Z,56.80
2023-07-18T21:24:32.395Z,56.70
2023-07-18T21:27:30.291Z,56.50
2023-07-18T21:30:28.456Z,57.10
2023-07-18T21:33:26.252Z,57.10
2023-07-18T21:36:24.340Z,56.80
2023-07-18T21:39:22.127Z,56.20
2023-07-18T21:42:20.150Z,55.80
2023-07-18T21:45:18.186Z,55.60
2023-07-18T21:48:16.142Z,55.70
2023-07-18T21:51:13.970Z,55.20
2023-07-18T21:54:11.911Z,55.20
2023-07-18T21:57:09.792Z,55.00
2023-07-18T22:00:08.467Z,55.00
2023-07-18T22:03:06.546Z,54.70
2023-07-18T22:06:04.570Z,54.80
2023-07-18T22:09:02.374Z,54.40
2023-07-18T22:12:00.315Z,54.20
2023-07-18T22:14:58.424Z,54.10
2023-07-18T22:17:56.467Z,54.00
2023-07-18T22:20:54.635Z,53.70
2023-07-18T22:23:52.519Z,53.80
2023-07-18T22:26:51.209Z,54.50
2023-07-18T22:29:49.152Z,54.30
2023-07-18T22:32:46.968Z,54.30
2023-07-18T22:35:45.109Z,53.90
2023-07-18T22:38:42.919Z,53.90
2023-07-18T22:41:41.010Z,53.80
2023-07-18T22:44:38.804Z,53.60
2023-07-18T22:47:36.702Z,53.40
2023-07-18T22:50:34.503Z,52.90
2023-07-18T22:53:34.103Z,52.60
2023-07-18T22:56:32.043Z,52.90
2023-07-18T22:59:29.985Z,52.80
2023-07-18T23:02:27.757Z,53.00
2023-07-18T23:05:25.798Z,53.40
2023-07-18T23:08:23.736Z,54.00
2023-07-18T23:11:22.069Z,53.70
2023-07-18T23:14:21.192Z,54.10
2023-07-18T23:17:19.256Z,54.00
2023-07-18T23:20:17.170Z,53.90
2023-07-18T23:23:15.465Z,53.60
2023-07-18T23:26:13.459Z,53.30
2023-07-18T23:29:11.503Z,53.20
2023-07-18T23:32:09.594Z,53.30
2023-07-18T23:35:08.237Z,53.40
2023-07-18T23:38:06.143Z,53.20
2023-07-18T23:41:04.243Z,53.10
2023-07-18T23:44:02.181Z,53.10
2023-07-18T23:47:00.478Z,52.80
2023-07-18T23:49:58.387Z,53.30
2023-07-18T23:52:57.422Z,53.20
2023-07-18T23:55:55.476Z,53.20
2023-07-18T23:58:53.587Z,53.00
